Impacts TAF Board INFO
FOR SITUATIONAL AWARENESS. NOT TO BE USED FOR FLIGHT PLANNING PURPOSES.
IDs:

KMEM - Memphis Intl, TN, US

Issued at 1130 UTC 26 Mar 2017
Updated at 1303 UTC 26 Mar 2017
Potential Impact None Slight Moderate High
Time1254Z 26/14Z 26/15Z 26/16Z 26/17Z 26/18Z 26/19Z 26/20Z 26/21Z 26/22Z 26/23Z 27/00Z 27/01Z 27/02Z
Type OBS PRVL PRVL PRVL PRVL PRVL PRVL PRVL PRVL PRVL PRVL PRVL PRVL PRVL
VIS 10 >6 >6 >6 >6 >6 >6 >6 >6 >6 >6 >6 >6 >6
CIG 10 40 40 -- -- -- -- -- -- -- -- -- 250 250
Cover BKN BKN BKN SCT SCT SCT SCT SCT SCT SCT SCT SCT BKN BKN
FltCat MVFR VFR VFR VFR VFR VFR VFR VFR VFR VFR VFR VFR VFR VFR
WX -- -- -- -- -- -- -- -- -- -- -- -- -- --
WDir 190 220 220 220 220 220 220 220 220 220 220 220 150 150
WSpd 5 7 7 9 9 9 9 9 9 9 9 9 5 5
WGst -- -- -- -- -- -- -- -- -- -- -- -- -- --

Raw TAF
KMEM 261130Z 2612/2712 21005KT P6SM SCT006 OVC010
  FM261400 22007KT P6SM BKN040
  FM261600 22009KT P6SM SCT050
  FM270100 15005KT P6SM BKN250
  FM270800 18010KT P6SM BKN060 OVC250


Raw METAR
KMEM 261254Z 19005KT 10SM FEW008 BKN010 BKN050 15/13 A2996 RMK AO2 SLP145 T01500133
KMEM 261154Z 21005KT 10SM FEW006 BKN011 OVC050 15/14 A2995 RMK AO2 SLP138 70004 T01500144 10156 20144 53014
KMEM 261105Z 19006KT 10SM SCT006 OVC013 15/14 A2993 RMK AO2 T01500144
KMEM 261054Z 20006KT 10SM BKN008 OVC013 15/14 A2993 RMK AO2 CIG 006V011 SLP132 T01500144

METAR Board
Radar Display
Forecast Discussion

FOR SITUATIONAL AWARENESS. NOT TO BE USED FOR FLIGHT PLANNING PURPOSES.

Page loaded:  13:03 UTC  |   06:03 AM Pacific  |   07:03 AM Mountain  |   08:03 AM Central  |   09:03 AM Eastern

 

ADVISORIES

FORECASTS

FORECASTS

OBSERVATIONS

USER TOOLS

ABOUT US